Time;durP1;ratioP1;P1;durP2;ratioP2;P2;SDS_P1;SDS_P2;PMS_P1;PMS_P2;Temp;Humidity;BMP_temperature;BMP_pressure;BME280_temperature;BME280_humidity;BME280_pressure;Samples;Min_cycle;Max_cycle;Signal;HPM_P1;HPM_P2
2022/01/22 00:02:23;;;;;;;13.18;5.97;;;;;;;2.57;88.91;100912.06;4985520;28;20042;-59
2022/01/22 00:04:48;;;;;;;19.63;5.95;;;;;;;2.59;88.65;100913.59;5000430;28;20030;-60
2022/01/22 00:07:14;;;;;;;15.98;5.63;;;;;;;2.60;89.37;100903.84;4993699;28;20141;-60
2022/01/22 00:09:46;;;;;;;16.42;5.88;;;;;;;2.55;88.55;100900.81;4989754;28;20030;-60
2022/01/22 00:12:22;;;;;;;16.50;5.35;;;;;;;2.61;88.73;100910.81;4991848;28;20034;-60
2022/01/22 00:14:48;;;;;;;13.48;5.45;;;;;;;2.57;88.65;100912.94;4990419;28;20026;-60
2022/01/22 00:17:13;;;;;;;16.25;5.72;;;;;;;2.62;88.28;100915.13;4990705;28;20050;-60
2022/01/22 00:19:38;;;;;;;14.02;5.47;;;;;;;2.59;88.62;100910.09;4989336;28;20050;-61
2022/01/22 00:22:04;;;;;;;18.20;6.60;;;;;;;2.59;88.01;100918.88;4990367;28;20046;-59
2022/01/22 00:24:36;;;;;;;15.23;6.10;;;;;;;2.66;88.29;100915.66;4994476;28;20740;-62
2022/01/22 00:27:02;;;;;;;17.75;6.25;;;;;;;2.66;87.02;100913.00;4993605;28;20080;-59
2022/01/22 00:29:27;;;;;;;14.27;6.32;;;;;;;2.64;87.28;100917.59;4996695;28;20026;-62
2022/01/22 00:31:53;;;;;;;14.45;6.45;;;;;;;2.59;87.69;100905.66;4990020;28;20054;-61
2022/01/22 00:34:18;;;;;;;15.57;6.57;;;;;;;2.64;87.60;100902.56;4991094;28;20026;-60
2022/01/22 00:36:44;;;;;;;14.88;6.43;;;;;;;2.66;87.04;100900.59;4991190;28;20042;-61
2022/01/22 00:39:09;;;;;;;16.23;6.03;;;;;;;2.60;87.32;100901.22;4993860;28;20439;-61
2022/01/22 00:41:35;;;;;;;14.20;6.95;;;;;;;2.57;87.54;100894.41;4993129;28;20042;-60
2022/01/22 00:44:00;;;;;;;16.92;6.45;;;;;;;2.54;87.25;100888.56;4994802;28;20029;-59
2022/01/22 00:46:26;;;;;;;12.18;5.97;;;;;;;2.58;88.08;100895.22;4985859;28;20125;-61
2022/01/22 00:48:51;;;;;;;20.42;6.80;;;;;;;2.53;88.18;100892.19;4991772;28;20030;-60
2022/01/22 00:51:17;;;;;;;18.40;5.93;;;;;;;2.52;88.25;100901.97;4990740;28;20050;-60
2022/01/22 00:53:42;;;;;;;17.50;6.15;;;;;;;2.59;89.47;100891.56;4989808;28;20056;-61
2022/01/22 00:56:08;;;;;;;18.13;6.80;;;;;;;2.58;88.74;100905.81;4991283;28;20046;-61
2022/01/22 00:58:33;;;;;;;14.68;7.32;;;;;;;2.48;88.73;100894.47;4993939;28;20026;-60
2022/01/22 01:00:58;;;;;;;18.88;7.32;;;;;;;2.50;89.11;100895.16;4991946;28;20042;-61
2022/01/22 01:03:24;;;;;;;18.67;7.78;;;;;;;2.50;89.08;100895.16;4995847;28;20045;-60
2022/01/22 01:05:49;;;;;;;13.82;7.38;;;;;;;2.49;89.09;100901.41;4981997;28;20416;-59
2022/01/22 01:08:15;;;;;;;23.67;7.95;;;;;;;2.44;89.14;100890.44;4995487;28;20026;-60
2022/01/22 01:10:40;;;;;;;18.13;8.02;;;;;;;2.37;89.88;100893.69;4989145;28;20042;-59
2022/01/22 01:13:06;;;;;;;14.65;7.32;;;;;;;2.44;89.61;100898.38;4988950;28;20038;-59
2022/01/22 01:34:12;;;;;;;14.73;7.63;;;;;;;2.35;89.71;100918.63;4988203;28;20819;-61
2022/01/22 01:36:38;;;;;;;17.10;8.60;;;;;;;2.37;89.36;100917.50;4997791;28;20049;-60
2022/01/22 01:39:06;;;;;;;18.33;8.25;;;;;;;2.36;89.79;100920.28;4991451;28;20439;-60
2022/01/22 01:41:42;;;;;;;16.95;8.90;;;;;;;2.40;90.09;100916.38;4987914;28;20672;-63
2022/01/22 01:44:07;;;;;;;23.83;8.80;;;;;;;2.38;90.35;100920.97;4969101;28;20037;-59
2022/01/22 01:46:33;;;;;;;19.15;8.93;;;;;;;2.36;90.64;100926.41;4984514;28;20042;-61
2022/01/22 01:48:59;;;;;;;17.48;8.02;;;;;;;2.40;90.76;100916.38;4992009;28;20038;-59
2022/01/22 01:51:28;;;;;;;14.82;9.25;;;;;;;2.45;90.95;100930.00;4986583;28;20049;-61
2022/01/22 01:54:45;;;;;;;22.45;9.10;;;;;;;2.42;90.44;100926.78;4990240;28;20418;-59
2022/01/22 01:59:43;;;;;;;18.42;7.82;;;;;;;2.45;89.81;100918.59;4993495;28;20034;-59
2022/01/22 02:02:09;;;;;;;14.38;8.43;;;;;;;2.49;90.19;100919.94;4987595;28;20057;-58
2022/01/22 02:04:34;;;;;;;14.30;8.30;;;;;;;2.46;90.23;100920.22;4982920;28;20041;-62
2022/01/22 02:07:00;;;;;;;17.98;8.63;;;;;;;2.46;90.36;100926.34;4991829;28;20049;-59
2022/01/22 02:09:25;;;;;;;19.60;8.07;;;;;;;2.48;90.44;100919.09;4983396;28;20030;-59
2022/01/22 02:12:01;;;;;;;18.95;8.00;;;;;;;2.46;90.29;100921.06;4955324;28;20433;-59
2022/01/22 02:25:16;;;;;;;15.95;7.65;;;;;;;2.42;90.87;100913.56;4985570;28;20069;-59
2022/01/22 02:27:41;;;;;;;13.05;7.40;;;;;;;2.44;91.04;100912.44;4989304;28;20471;-59
2022/01/22 02:30:07;;;;;;;24.63;7.68;;;;;;;2.46;91.28;100899.06;4989892;28;20026;-59
2022/01/22 02:35:30;;;;;;;;;;;;;;;2.43;90.77;100891.44;4990434;28;20060;-60
2022/01/22 02:38:04;;;;;;;16.80;7.88;;;;;;;2.45;90.79;100890.28;4986048;28;19975;-60
2022/01/22 02:40:36;;;;;;;11.48;7.40;;;;;;;2.45;91.06;100884.19;4995353;28;20047;-60
2022/01/22 02:43:01;;;;;;;15.63;7.07;;;;;;;2.39;91.42;100893.50;4985433;28;20062;-59
2022/01/22 02:45:26;;;;;;;14.13;7.50;;;;;;;2.36;92.19;100894.66;4991222;28;20041;-60
2022/01/22 02:47:52;;;;;;;18.35;7.45;;;;;;;2.38;91.78;100897.16;4989723;28;20026;-59
2022/01/22 02:50:18;;;;;;;19.88;8.32;;;;;;;2.40;91.27;100895.19;4986090;28;20034;-59
2022/01/22 02:52:44;;;;;;;16.05;8.00;;;;;;;2.34;92.25;100891.31;4983475;28;20036;-59
2022/01/22 02:55:11;;;;;;;16.15;8.48;;;;;;;2.36;92.09;100884.06;4990687;28;20038;-60
2022/01/22 02:57:37;;;;;;;16.63;8.13;;;;;;;2.40;92.08;100876.69;4990673;28;20530;-60
2022/01/22 03:00:04;;;;;;;15.98;7.53;;;;;;;2.39;91.81;100872.34;4992495;28;20034;-60
2022/01/22 03:02:30;;;;;;;13.55;7.47;;;;;;;2.38;92.27;100873.34;4971624;28;20153;-60
2022/01/22 03:04:55;;;;;;;11.35;7.53;;;;;;;2.42;92.07;100884.44;4971124;28;20031;-60
2022/01/22 03:07:21;;;;;;;11.18;7.40;;;;;;;2.43;92.02;100884.31;4997519;28;20037;-59
2022/01/22 03:09:48;;;;;;;17.25;7.15;;;;;;;2.38;92.17;100871.53;4995192;28;20270;-60
2022/01/22 03:12:48;;;;;;;15.52;7.00;;;;;;;2.41;92.39;100872.22;5002935;28;20448;-59
2022/01/22 03:27:49;;;;;;;14.57;6.95;;;;;;;2.49;92.56;100867.00;4979568;28;20076;-59
2022/01/22 03:30:15;;;;;;;11.05;6.45;;;;;;;2.43;93.10;100878.19;4992151;28;20471;-59
2022/01/22 03:32:44;;;;;;;11.48;7.40;;;;;;;2.40;93.07;100874.03;4989922;28;20819;-60
2022/01/22 03:35:25;;;;;;;16.48;7.53;;;;;;;2.40;93.53;100870.53;4995891;28;20033;-59
2022/01/22 03:37:53;;;;;;;15.20;7.15;;;;;;;2.50;93.20;100874.78;4983374;28;20033;-59
2022/01/22 03:40:23;;;;;;;11.35;6.15;;;;;;;2.52;93.05;100877.28;4984970;28;20129;-60
2022/01/22 03:42:50;;;;;;;17.48;7.18;;;;;;;2.50;92.64;100879.25;4990865;28;20018;-59
2022/01/22 03:45:16;;;;;;;13.18;6.63;;;;;;;2.47;92.87;100882.19;5005879;28;20049;-59
2022/01/22 03:47:42;;;;;;;9.40;6.55;;;;;;;2.55;93.08;100877.00;4984573;28;20050;-60
2022/01/22 03:50:08;;;;;;;9.70;6.25;;;;;;;2.52;93.04;100877.28;4994162;28;20037;-60
2022/01/22 03:52:33;;;;;;;10.63;5.93;;;;;;;2.55;93.04;100871.72;4995945;28;20029;-60
2022/01/22 03:54:59;;;;;;;13.38;6.50;;;;;;;2.60;93.48;100880.03;4986260;28;20566;-60
2022/01/22 03:57:25;;;;;;;15.20;7.35;;;;;;;2.51;93.41;100873.81;4985201;28;20038;-60
2022/01/22 03:59:52;;;;;;;14.30;7.13;;;;;;;2.58;93.31;100874.03;4988252;28;20057;-60
2022/01/22 04:05:03;;;;;;;11.00;6.60;;;;;;;2.53;94.03;100885.06;4995309;28;20080;-60
2022/01/22 04:10:06;;;;;;;13.18;7.78;;;;;;;2.68;93.66;100887.22;4992297;28;20305;-60
2022/01/22 04:12:42;;;;;;;14.43;7.53;;;;;;;2.62;93.41;100883.38;4989580;28;20033;-59
2022/01/22 04:15:10;;;;;;;9.65;6.30;;;;;;;2.63;94.35;100894.78;4989699;28;20077;-59
2022/01/22 04:25:34;;;;;;;9.40;5.78;;;;;;;2.70;94.63;100886.09;4988669;28;20061;-60
2022/01/22 04:27:59;;;;;;;12.93;7.50;;;;;;;2.77;94.85;100888.94;4992412;28;20069;-60
2022/01/22 04:30:27;;;;;;;10.80;7.05;;;;;;;2.76;95.22;100884.63;4991916;28;20100;-60
2022/01/22 04:32:52;;;;;;;13.75;7.22;;;;;;;2.79;94.82;100882.50;4992185;28;20034;-59
2022/01/22 04:35:18;;;;;;;12.35;7.32;;;;;;;2.75;95.43;100889.09;4995378;28;20033;-59
2022/01/22 04:37:46;;;;;;;11.00;6.28;;;;;;;2.76;95.07;100889.94;4987091;28;20034;-60
2022/01/22 04:40:12;;;;;;;11.95;6.90;;;;;;;2.76;95.64;100884.63;4986309;28;20646;-60
2022/01/22 04:42:39;;;;;;;13.93;6.95;;;;;;;2.73;95.73;100880.47;4987328;28;20030;-59
2022/01/22 04:45:18;;;;;;;13.20;7.15;;;;;;;2.72;95.76;100891.22;4994479;28;20038;-59
2022/01/22 04:55:37;;;;;;;10.73;6.22;;;;;;;2.74;95.98;100887.44;4994892;28;20046;-61
2022/01/22 04:58:03;;;;;;;13.90;7.30;;;;;;;2.79;96.07;100885.16;4993792;28;20037;-61
2022/01/22 05:00:31;;;;;;;12.15;7.95;;;;;;;2.81;95.77;100893.78;4995806;28;20088;-60
2022/01/22 05:02:57;;;;;;;11.27;7.82;;;;;;;2.84;96.15;100883.88;4995734;28;20515;-59
2022/01/22 05:05:22;;;;;;;12.10;7.05;;;;;;;2.82;96.32;100889.31;4993863;28;20049;-60
2022/01/22 05:07:48;;;;;;;10.77;6.70;;;;;;;2.83;96.70;100884.88;4989466;28;20034;-61
2022/01/22 05:10:13;;;;;;;16.35;7.95;;;;;;;2.78;96.95;100878.22;4986614;28;20744;-59
2022/01/22 05:12:38;;;;;;;13.18;7.68;;;;;;;2.91;98.65;100882.28;4987072;28;20489;-60
2022/01/22 05:15:05;;;;;;;11.27;7.15;;;;;;;2.81;97.41;100887.66;4998638;28;20076;-60
2022/01/22 05:17:34;;;;;;;14.60;8.57;;;;;;;2.77;97.92;100892.44;4995066;28;20034;-60
2022/01/22 05:20:24;;;;;;;13.80;8.07;;;;;;;2.78;97.91;100886.16;4991389;28;20036;-59
2022/01/22 05:23:24;;;;;;;16.58;8.98;;;;;;;2.75;98.04;100890.94;4986183;28;20388;-60
2022/01/22 05:25:48;;;;;;;15.40;8.60;;;;;;;2.72;98.63;100881.47;4990432;28;20563;-60
2022/01/22 05:31:03;;;;;;;14.15;8.73;;;;;;;2.74;98.81;100890.06;4982858;28;20057;-60
2022/01/22 05:38:38;;;;;;;17.50;8.50;;;;;;;2.73;99.19;100884.94;4990528;28;20396;-60
2022/01/22 05:41:04;;;;;;;15.00;7.75;;;;;;;2.76;99.16;100885.47;4989738;28;20043;-59
2022/01/22 05:43:29;;;;;;;12.98;8.07;;;;;;;2.83;98.95;100885.69;4969479;28;20435;-60
2022/01/22 05:45:55;;;;;;;17.23;7.07;;;;;;;2.80;99.74;100891.31;4986385;28;20035;-60
2022/01/22 05:48:20;;;;;;;11.60;7.40;;;;;;;2.86;99.83;100889.88;4993705;28;20026;-59
2022/01/22 05:50:53;;;;;;;14.25;8.02;;;;;;;2.76;100.00;100889.94;4987116;28;20055;-60
2022/01/22 06:01:12;;;;;;;18.77;9.55;;;;;;;2.75;100.00;100897.06;4992794;28;20080;-59
2022/01/22 06:03:38;;;;;;;16.17;9.18;;;;;;;2.78;100.00;100899.38;4995699;28;20660;-59
2022/01/22 06:06:03;;;;;;;16.40;9.07;;;;;;;2.84;100.00;100902.41;4991597;28;20043;-59
2022/01/22 06:08:31;;;;;;;18.98;9.07;;;;;;;2.83;100.00;100896.28;4994624;28;20038;-62
2022/01/22 06:10:59;;;;;;;16.10;8.85;;;;;;;2.84;100.00;100900.59;4984924;28;20053;-60
2022/01/22 06:13:34;;;;;;;17.63;9.50;;;;;;;2.78;100.00;100899.38;4995393;28;20037;-60
2022/01/22 06:15:59;;;;;;;16.42;9.45;;;;;;;2.80;100.00;100902.72;4988781;28;20046;-60
2022/01/22 06:18:25;;;;;;;16.92;9.52;;;;;;;2.84;100.00;100903.25;4980684;28;20034;-60
2022/01/22 06:20:50;;;;;;;17.35;9.35;;;;;;;2.87;100.00;100897.66;4984731;28;20041;-59
2022/01/22 06:23:16;;;;;;;17.45;9.98;;;;;;;2.84;100.00;100899.78;4989378;28;20034;-59
2022/01/22 06:25:41;;;;;;;18.77;10.35;;;;;;;2.80;100.00;100908.03;4996987;28;20484;-60
2022/01/22 06:28:07;;;;;;;18.33;8.73;;;;;;;2.87;100.00;100905.63;4981137;28;20066;-60
2022/01/22 06:30:32;;;;;;;18.00;9.45;;;;;;;2.85;100.00;100910.22;4980026;28;20137;-61
2022/01/22 06:32:58;;;;;;;18.42;10.52;;;;;;;2.88;100.00;100912.56;4991842;28;20034;-59
2022/01/22 06:35:23;;;;;;;17.73;11.35;;;;;;;2.91;100.00;100916.72;4983337;28;20049;-60
2022/01/22 06:37:49;;;;;;;18.48;11.73;;;;;;;2.87;100.00;100913.56;4989385;28;20097;-60
2022/01/22 06:42:43;;;;;;;20.98;10.63;;;;;;;2.88;100.00;100923.16;4985682;28;20042;-59
2022/01/22 06:45:08;;;;;;;27.83;14.23;;;;;;;2.93;100.00;100922.72;4988324;28;20504;-59
2022/01/22 06:47:34;;;;;;;28.60;15.02;;;;;;;2.85;100.00;100931.41;4989596;28;20045;-59
2022/01/22 06:50:00;;;;;;;23.58;12.10;;;;;;;2.87;100.00;100929.44;4993467;28;20034;-60
2022/01/22 06:52:26;;;;;;;23.15;12.43;;;;;;;2.89;100.00;100931.94;4992088;28;20053;-60
2022/01/22 06:54:51;;;;;;;23.27;12.68;;;;;;;2.88;100.00;100936.41;4988901;28;20044;-60
2022/01/22 06:57:17;;;;;;;25.33;13.13;;;;;;;2.91;100.00;100932.63;4988767;28;20117;-60
2022/01/22 06:59:42;;;;;;;20.70;11.05;;;;;;;2.98;100.00;100936.34;4990851;28;20032;-59
2022/01/22 07:02:08;;;;;;;31.05;14.40;;;;;;;2.97;100.00;100929.34;4983374;28;20061;-62
2022/01/22 07:04:37;;;;;;;26.77;13.65;;;;;;;2.94;100.00;100938.44;4987427;28;20535;-61
2022/01/22 07:07:08;;;;;;;34.30;19.57;;;;;;;2.96;100.00;100933.81;4986386;28;20289;-60
2022/01/22 07:09:33;;;;;;;27.83;16.20;;;;;;;3.00;100.00;100944.97;4984468;28;20033;-60
2022/01/22 07:11:59;;;;;;;34.22;19.00;;;;;;;3.03;99.73;100949.94;4992623;28;20177;-59
2022/01/22 07:14:26;;;;;;;27.85;15.73;;;;;;;3.04;99.57;100948.94;4987486;28;20030;-60
2022/01/22 07:16:51;;;;;;;22.40;11.98;;;;;;;2.99;99.92;100954.69;4991531;28;20040;-59
2022/01/22 07:19:19;;;;;;;24.90;11.77;;;;;;;3.03;99.49;100945.47;4996163;28;20563;-60
2022/01/22 07:21:51;;;;;;;23.95;12.75;;;;;;;3.10;99.84;100956.31;4982515;28;20097;-60
2022/01/22 07:24:23;;;;;;;28.00;11.63;;;;;;;3.10;99.19;100956.31;4988951;28;20038;-60
2022/01/22 07:26:50;;;;;;;22.10;11.50;;;;;;;3.07;98.88;100951.31;4984102;28;20046;-60
2022/01/22 07:29:15;;;;;;;24.88;13.00;;;;;;;3.09;99.31;100949.34;4984562;28;20030;-60
2022/01/22 07:31:41;;;;;;;25.38;13.10;;;;;;;3.08;99.31;100941.56;4987550;28;20170;-61
2022/01/22 07:34:06;;;;;;;23.55;12.23;;;;;;;3.09;99.28;100945.84;4988154;28;20118;-60
2022/01/22 07:36:31;;;;;;;25.80;11.63;;;;;;;3.09;99.38;100938.72;4990743;28;20042;-59
2022/01/22 07:38:57;;;;;;;24.17;14.18;;;;;;;3.13;98.86;100944.59;4990316;28;20030;-59
2022/01/22 07:41:22;;;;;;;33.50;14.35;;;;;;;3.16;98.72;100939.78;4989509;28;20037;-60
2022/01/22 07:43:51;;;;;;;20.95;11.20;;;;;;;3.15;98.62;100942.63;4990867;28;20476;-61
2022/01/22 07:46:16;;;;;;;24.15;12.43;;;;;;;3.17;98.40;100941.47;4987027;28;20072;-60
2022/01/22 07:48:42;;;;;;;22.27;11.57;;;;;;;3.18;98.57;100948.44;4993639;28;20026;-60
2022/01/22 07:51:08;;;;;;;22.60;12.02;;;;;;;3.29;98.34;100951.81;4992853;28;20083;-60
2022/01/22 07:53:34;;;;;;;24.10;13.05;;;;;;;3.20;98.50;100946.47;4987419;28;20123;-59
2022/01/22 07:56:00;;;;;;;22.85;11.90;;;;;;;3.24;98.52;100957.59;4995792;28;20171;-59
2022/01/22 07:58:25;;;;;;;19.10;10.48;;;;;;;3.29;98.63;100970.38;4991876;28;20037;-60
2022/01/22 08:00:50;;;;;;;23.88;12.50;;;;;;;3.24;98.50;100969.03;4988536;28;20053;-60
2022/01/22 08:03:16;;;;;;;27.88;12.30;;;;;;;3.28;98.80;100974.03;4983885;28;20297;-59
2022/01/22 08:05:42;;;;;;;21.40;11.43;;;;;;;3.29;98.25;100975.69;4989059;28;20057;-60
2022/01/22 08:08:07;;;;;;;22.13;11.35;;;;;;;3.29;97.97;100975.69;4993610;28;20125;-60
2022/01/22 08:10:33;;;;;;;24.38;12.02;;;;;;;3.28;98.33;100968.72;4988883;28;20093;-60
2022/01/22 08:12:58;;;;;;;21.50;11.60;;;;;;;3.32;98.17;100980.66;4999343;28;20027;-59
2022/01/22 08:15:24;;;;;;;29.35;12.80;;;;;;;3.29;98.03;100973.03;4997607;28;20042;-60
2022/01/22 08:17:49;;;;;;;23.10;12.57;;;;;;;3.32;97.88;100978.88;4987779;28;20045;-59
2022/01/22 08:20:16;;;;;;;24.00;11.57;;;;;;;3.31;98.10;100976.38;4983517;28;20032;-59
2022/01/22 08:22:45;;;;;;;21.00;12.00;;;;;;;3.36;97.50;100982.03;4990073;28;20073;-59
2022/01/22 08:25:10;;;;;;;28.80;12.20;;;;;;;3.38;97.59;100972.94;4987634;28;20190;-59
2022/01/22 08:28:52;;;;;;;23.20;11.65;;;;;;;3.41;97.58;100979.75;4993149;28;20085;-59
2022/01/22 08:30:22;;;;;;;21.45;13.13;;;;;;;3.39;97.59;100981.72;4990658;28;20092;-59
2022/01/22 08:33:09;;;;;;;24.55;13.90;;;;;;;3.39;97.38;100976.44;4987611;28;20018;-60
2022/01/22 08:35:53;;;;;;;22.80;12.98;;;;;;;3.41;97.59;100980.59;4988565;28;20571;-60
2022/01/22 08:38:22;;;;;;;30.42;12.25;;;;;;;3.43;97.60;100988.41;4993510;28;20022;-60
2022/01/22 08:40:49;;;;;;;25.70;13.23;;;;;;;3.44;97.49;100995.34;4992082;28;20049;-60
2022/01/22 08:43:14;;;;;;;24.95;12.40;;;;;;;3.39;97.61;101002.94;4989963;28;20022;-60
2022/01/22 08:45:40;;;;;;;20.42;10.30;;;;;;;3.45;97.58;100997.03;4995244;28;20053;-60
2022/01/22 08:48:05;;;;;;;22.73;12.13;;;;;;;3.52;96.99;100999.91;5002537;28;20030;-60
2022/01/22 08:50:32;;;;;;;22.65;11.73;;;;;;;3.58;97.29;100996.66;4990747;28;20041;-60
2022/01/22 08:52:57;;;;;;;21.13;10.85;;;;;;;3.60;96.51;101000.81;4989450;28;20030;-61
2022/01/22 08:55:23;;;;;;;17.88;10.23;;;;;;;3.64;96.89;100999.53;4993333;28;20046;-60
2022/01/22 08:57:51;;;;;;;22.73;11.18;;;;;;;3.74;96.73;101001.22;4988200;28;20026;-61
2022/01/22 09:00:17;;;;;;;21.30;10.82;;;;;;;3.79;96.14;100993.63;4989928;28;20038;-60
2022/01/22 09:02:45;;;;;;;18.25;10.30;;;;;;;3.90;95.82;100998.72;4988533;28;20026;-59
2022/01/22 09:05:10;;;;;;;21.60;10.75;;;;;;;3.99;95.06;100999.56;4998585;28;20118;-60
2022/01/22 09:07:36;;;;;;;13.73;8.52;;;;;;;3.98;94.69;101006.72;4992175;28;20145;-60
2022/01/22 09:10:01;;;;;;;24.02;9.82;;;;;;;3.99;95.63;100994.28;4993832;28;20042;-60
2022/01/22 09:12:27;;;;;;;15.05;8.20;;;;;;;3.93;95.05;101000.22;4996434;28;20033;-60
2022/01/22 09:14:52;;;;;;;19.27;8.80;;;;;;;4.02;94.96;101001.91;4992145;28;20045;-60
2022/01/22 09:17:18;;;;;;;14.73;9.18;;;;;;;4.13;95.44;101009.63;4987574;28;20049;-60
2022/01/22 09:19:46;;;;;;;17.13;10.02;;;;;;;4.16;94.35;101011.97;4990328;28;20029;-61
2022/01/22 09:22:11;;;;;;;18.73;11.23;;;;;;;4.20;94.03;101015.16;4991856;28;20026;-60
2022/01/22 09:24:37;;;;;;;15.45;8.70;;;;;;;4.19;93.60;101016.94;4983950;28;20046;-60
2022/01/22 09:27:05;;;;;;;18.92;9.15;;;;;;;4.44;95.00;101014.44;4990581;28;20046;-60
2022/01/22 09:29:30;;;;;;;16.88;10.23;;;;;;;4.53;94.33;101018.78;4999984;28;20023;-60
2022/01/22 09:31:56;;;;;;;15.38;9.27;;;;;;;4.35;92.74;101015.41;4984760;28;20049;-59
2022/01/22 09:34:21;;;;;;;15.75;8.38;;;;;;;4.30;94.53;101018.53;4995431;28;20510;-60
2022/01/22 09:36:47;;;;;;;11.63;6.68;;;;;;;4.21;92.55;101025.59;4986369;28;20046;-60
2022/01/22 09:39:12;;;;;;;14.80;7.07;;;;;;;4.37;94.04;101029.31;4991357;28;20053;-59
2022/01/22 09:41:38;;;;;;;13.15;5.93;;;;;;;4.18;91.90;101035.69;4990178;28;20065;-60
2022/01/22 09:44:03;;;;;;;11.05;6.57;;;;;;;4.27;93.20;101030.28;4981269;28;20081;-60
2022/01/22 09:46:29;;;;;;;10.98;6.45;;;;;;;4.29;92.00;101032.75;4984328;28;20041;-60
2022/01/22 09:48:55;;;;;;;11.23;6.85;;;;;;;4.36;92.25;101032.97;4984209;28;20451;-60
2022/01/22 09:51:20;;;;;;;14.80;7.50;;;;;;;4.40;91.76;101035.16;4995038;28;20037;-60
2022/01/22 09:53:46;;;;;;;22.45;8.70;;;;;;;4.19;91.85;101037.34;5002519;28;20041;-60
2022/01/22 09:56:11;;;;;;;23.38;12.20;;;;;;;4.38;91.32;101033.66;4989885;28;20054;-60
2022/01/22 09:58:37;;;;;;;20.55;10.18;;;;;;;4.46;91.05;101031.88;4985545;28;20199;-61
2022/01/22 10:01:23;;;;;;;15.40;8.35;;;;;;;4.37;91.21;101038.13;4985360;28;20045;-59
2022/01/22 10:03:49;;;;;;;20.10;9.77;;;;;;;4.28;92.09;101041.72;4987925;28;20034;-59
2022/01/22 10:06:19;;;;;;;19.40;9.43;;;;;;;4.48;91.96;101040.50;4984704;28;20038;-59
2022/01/22 10:08:45;;;;;;;14.43;8.30;;;;;;;4.44;91.37;101039.19;4986391;28;20366;-61
2022/01/22 10:11:25;;;;;;;16.27;7.30;;;;;;;4.36;90.69;101039.13;4994757;28;20288;-60
2022/01/22 10:13:52;;;;;;;15.73;8.05;;;;;;;4.41;90.85;101046.59;4986901;28;20052;-61
2022/01/22 10:16:26;;;;;;;12.05;7.95;;;;;;;4.42;90.22;101033.19;4988585;28;20057;-60
2022/01/22 10:19:16;;;;;;;13.00;6.97;;;;;;;4.48;89.97;101039.69;4986830;28;20400;-61
2022/01/22 10:21:56;;;;;;;;;;;;;;;4.71;89.53;101031.97;4980197;28;20049;-59
2022/01/22 10:24:39;;;;;;;14.02;7.90;;;;;;;4.65;89.80;101029.97;4982535;28;19927;-61
2022/01/22 10:27:33;;;;;;;12.50;7.50;;;;;;;4.85;89.32;101031.38;4981008;28;20041;-61
2022/01/22 10:30:03;;;;;;;18.27;8.15;;;;;;;4.88;87.99;101035.53;4980323;28;20073;-59
2022/01/22 10:32:45;;;;;;;13.13;8.03;;;;;;;4.84;87.73;101024.41;4984280;28;20081;-60
2022/01/22 10:35:16;;;;;;;11.93;6.50;;;;;;;4.80;87.66;101022.22;4982054;28;20089;-60
2022/01/22 10:37:42;;;;;;;10.07;6.40;;;;;;;4.90;87.56;101026.41;4980068;28;20030;-60
2022/01/22 10:40:27;;;;;;;13.35;7.50;;;;;;;4.75;88.39;101039.47;4989055;28;20030;-60
2022/01/22 10:43:09;;;;;;;11.90;6.50;;;;;;;4.91;88.84;101033.38;4983068;28;20034;-60
2022/01/22 10:45:39;;;;;;;13.10;7.13;;;;;;;4.92;87.74;101037.72;4988926;28;20038;-60
2022/01/22 10:48:21;;;;;;;13.60;6.30;;;;;;;5.03;87.37;101033.09;4992802;28;20053;-60
2022/01/22 10:50:50;;;;;;;;;;;;;;;5.00;87.12;101041.38;4991347;28;20085;-60
2022/01/22 10:53:15;;;;;;;10.82;4.88;;;;;;;4.90;88.14;101037.03;4986733;28;19932;-59
2022/01/22 10:56:00;;;;;;;11.10;5.70;;;;;;;5.08;88.51;101028.94;4985791;28;20038;-61
2022/01/22 10:58:25;;;;;;;9.98;5.43;;;;;;;5.08;88.03;101028.94;4990215;28;20416;-60
2022/01/22 11:01:01;;;;;;;9.75;4.75;;;;;;;5.02;88.06;101031.41;4985561;28;20508;-59
2022/01/22 11:03:28;;;;;;;8.77;4.93;;;;;;;5.10;88.53;101029.63;4981353;28;20026;-60
2022/01/22 11:05:54;;;;;;;10.00;5.00;;;;;;;5.07;88.59;101037.09;4983082;28;20669;-60
2022/01/22 11:08:19;;;;;;;9.55;4.55;;;;;;;5.14;87.83;101025.66;4979276;28;20773;-59
2022/01/22 11:10:45;;;;;;;8.70;4.95;;;;;;;5.22;88.87;101024.84;4985824;28;20047;-59
2022/01/22 11:13:11;;;;;;;10.73;5.50;;;;;;;5.22;87.66;101023.97;4982876;28;20026;-59
2022/01/22 11:15:37;;;;;;;8.65;4.93;;;;;;;5.32;87.23;101025.50;4983154;28;20050;-59
2022/01/22 11:18:03;;;;;;;10.57;5.68;;;;;;;5.35;87.04;101022.50;4973049;28;20046;-59
2022/01/22 11:20:30;;;;;;;11.77;5.53;;;;;;;5.41;86.78;101031.66;4985090;28;20447;-61
2022/01/22 11:22:56;;;;;;;11.05;5.65;;;;;;;5.39;86.73;101037.16;4983436;28;20076;-59
2022/01/22 11:25:21;;;;;;;9.15;5.43;;;;;;;5.45;85.86;101032.16;4962070;28;20061;-59
2022/01/22 11:27:47;;;;;;;11.18;5.47;;;;;;;5.53;86.83;101029.50;4989386;28;20026;-59
2022/01/22 11:30:13;;;;;;;11.75;5.28;;;;;;;5.54;85.05;101036.47;4982773;28;20042;-59
2022/01/22 11:32:53;;;;;;;14.20;5.68;;;;;;;5.50;86.35;101032.50;4985960;28;20049;-60
2022/01/22 11:35:21;;;;;;;14.63;6.45;;;;;;;5.41;86.03;101029.81;4999754;28;20030;-59
2022/01/22 11:37:47;;;;;;;15.90;6.35;;;;;;;5.42;85.95;101028.00;4983778;28;20602;-60
2022/01/22 11:40:21;;;;;;;16.30;5.70;;;;;;;5.40;85.28;101028.16;4980025;28;20421;-60
2022/01/22 11:42:59;;;;;;;11.85;5.03;;;;;;;5.30;86.73;101030.16;4978217;28;20057;-60
2022/01/22 11:45:27;;;;;;;6.43;3.97;;;;;;;5.55;86.49;101023.03;4978763;28;20046;-60
2022/01/22 11:48:20;;;;;;;10.63;4.75;;;;;;;5.80;84.59;101018.53;4981783;28;20053;-59
2022/01/22 11:50:51;;;;;;;13.60;5.75;;;;;;;6.05;85.88;101023.88;4983854;28;20038;-60
2022/01/22 11:53:30;;;;;;;12.30;4.90;;;;;;;6.02;84.87;101019.72;4981306;28;20117;-60
2022/01/22 11:56:11;;;;;;;8.55;4.63;;;;;;;5.92;83.97;101004.91;5001420;28;20053;-61
2022/01/22 11:59:02;;;;;;;9.27;4.47;;;;;;;6.17;82.81;101019.84;4986048;28;20100;-60
2022/01/22 12:01:39;;;;;;;10.02;4.60;;;;;;;6.22;82.65;101022.84;4982103;28;20096;-60
2022/01/22 12:04:09;;;;;;;11.20;4.35;;;;;;;6.36;82.55;101015.94;4988446;28;20046;-60
2022/01/22 12:06:38;;;;;;;11.38;4.75;;;;;;;6.34;81.65;101010.00;4981450;28;20072;-61
2022/01/22 12:09:13;;;;;;;9.43;4.20;;;;;;;6.19;82.53;101020.53;4980168;28;20061;-60
2022/01/22 12:14:49;;;;;;;7.80;3.85;;;;;;;6.15;82.52;101011.19;4982527;28;20092;-60
2022/01/22 12:17:24;;;;;;;9.70;4.00;;;;;;;6.19;81.84;101009.00;4984457;28;20058;-60
2022/01/22 12:22:31;;;;;;;6.97;3.78;;;;;;;6.09;83.19;101017.22;4987413;28;20034;-60
2022/01/22 12:25:00;;;;;;;9.93;3.70;;;;;;;6.16;84.26;101023.50;4984624;28;20561;-60
2022/01/22 12:27:55;;;;;;;13.77;3.78;;;;;;;6.05;82.73;101027.34;4987045;28;20053;-60
2022/01/22 12:30:44;;;;;;;7.10;3.47;;;;;;;6.08;84.80;101018.19;4992693;28;20054;-60
2022/01/22 12:33:32;;;;;;;9.20;3.45;;;;;;;6.02;82.13;101017.03;4983600;28;20018;-60
2022/01/22 12:36:04;;;;;;;7.03;3.38;;;;;;;6.08;82.61;101026.19;4984294;28;20451;-60
2022/01/22 12:38:43;;;;;;;7.38;3.65;;;;;;;5.82;83.18;101024.53;4987240;28;20587;-60
2022/01/22 12:44:14;;;;;;;15.00;4.32;;;;;;;5.96;83.39;101014.22;4997395;28;20113;-60
2022/01/22 12:46:39;;;;;;;8.95;3.55;;;;;;;6.03;84.15;101024.03;4992419;28;20091;-60
2022/01/22 12:49:06;;;;;;;9.45;3.60;;;;;;;5.90;83.57;101022.84;4985279;28;20463;-60
2022/01/22 12:51:32;;;;;;;9.88;3.13;;;;;;;6.01;84.15;101014.53;4987931;28;20038;-60
2022/01/22 12:53:57;;;;;;;8.60;3.50;;;;;;;5.96;84.91;101006.22;4986383;28;20503;-60
2022/01/22 12:59:03;;;;;;;5.80;2.95;;;;;;;5.77;85.68;101013.56;4989743;28;20030;-61
2022/01/22 13:01:31;;;;;;;10.20;3.50;;;;;;;5.66;85.50;101015.72;4985643;28;21014;-61
2022/01/22 13:03:56;;;;;;;8.80;3.25;;;;;;;5.78;87.00;101025.03;4985853;28;20121;-59
2022/01/22 13:06:24;;;;;;;7.03;3.55;;;;;;;5.63;86.93;101016.88;4986218;28;20575;-59
2022/01/22 13:08:53;;;;;;;7.07;3.28;;;;;;;5.50;86.99;101013.88;4988100;28;20172;-59
2022/01/22 13:11:21;;;;;;;6.90;2.93;;;;;;;5.40;86.98;101011.38;4983350;28;20100;-59